Airport View

Enter AWOS ICAO identifier for current METAR.

ex. KFNL

KOIN 170925Z AUTO 31014KT 10SM CLR 05/02 A3018 RMK AO1 T00450017

17 Nov 2019 09:26

Frequency: 119.225

Phone: 785-475-2587

Other Area AWOS: KMCK - KCBK - KIML - KHLC

TAF KMCK 170532Z 1706/1806 32010KT P6SM BKN060 FM171700 29009KT P6SM SKC FM172300 26006KT P6SM FEW250